createdAt,value
2019-05-25T00:02:16.495Z,97.70
2019-05-25T00:04:44.209Z,97.60
2019-05-25T00:07:12.262Z,97.50
2019-05-25T00:09:40.219Z,97.60
2019-05-25T00:12:07.907Z,97.60
2019-05-25T00:14:36.127Z,97.50
2019-05-25T00:17:03.867Z,97.70
2019-05-25T00:19:31.503Z,97.70
2019-05-25T00:21:59.179Z,97.70
2019-05-25T00:24:26.826Z,98.30
2019-05-25T00:26:54.787Z,98.00
2019-05-25T00:29:22.445Z,98.20
2019-05-25T00:31:50.115Z,98.00
2019-05-25T00:34:17.772Z,98.20
2019-05-25T00:36:45.848Z,98.10
2019-05-25T00:39:13.478Z,98.20
2019-05-25T00:41:41.159Z,97.70
2019-05-25T00:44:08.798Z,97.90
2019-05-25T00:46:36.476Z,97.90
2019-05-25T00:49:04.196Z,98.20
2019-05-25T00:51:31.884Z,98.60
2019-05-25T00:53:59.525Z,98.80
2019-05-25T00:56:27.208Z,98.60
2019-05-25T00:58:54.842Z,98.50
2019-05-25T01:01:24.478Z,98.60
2019-05-25T01:04:11.472Z,98.50
2019-05-25T01:09:13.316Z,98.20
2019-05-25T01:11:40.995Z,98.40
2019-05-25T01:14:08.640Z,98.30
2019-05-25T01:16:36.324Z,98.40
2019-05-25T01:19:04.041Z,98.30
2019-05-25T01:21:32.487Z,98.60
2019-05-25T01:24:00.150Z,98.70
2019-05-25T01:26:27.892Z,98.60
2019-05-25T01:28:55.527Z,98.60
2019-05-25T01:31:23.213Z,98.40
2019-05-25T01:33:50.867Z,98.30
2019-05-25T01:36:18.835Z,98.50
2019-05-25T01:38:46.802Z,98.40
2019-05-25T01:41:14.483Z,98.20
2019-05-25T01:43:42.131Z,98.20
2019-05-25T01:46:09.811Z,98.20
2019-05-25T01:48:37.455Z,98.30
2019-05-25T01:51:05.141Z,98.30
2019-05-25T01:53:32.778Z,98.30
2019-05-25T01:56:00.451Z,98.20
2019-05-25T01:58:28.095Z,98.50
2019-05-25T02:00:55.771Z,98.50
2019-05-25T02:03:23.483Z,98.30
2019-05-25T02:05:51.168Z,98.30
2019-05-25T02:08:18.815Z,99.00
2019-05-25T02:10:46.455Z,98.40
2019-05-25T02:13:14.140Z,98.90
2019-05-25T02:15:41.788Z,98.80
2019-05-25T02:18:09.463Z,99.00
2019-05-25T02:20:37.110Z,98.80
2019-05-25T02:23:04.795Z,98.80
2019-05-25T02:25:32.436Z,98.60
2019-05-25T02:28:00.467Z,98.80
2019-05-25T02:30:28.641Z,98.30
2019-05-25T02:32:56.327Z,98.50
2019-05-25T02:35:25.411Z,98.50
2019-05-25T02:37:53.099Z,98.60
2019-05-25T02:40:20.818Z,98.50
2019-05-25T02:42:48.496Z,98.70
2019-05-25T02:45:16.213Z,98.50
2019-05-25T02:47:43.904Z,98.40
2019-05-25T02:50:11.539Z,98.60
2019-05-25T02:52:39.557Z,98.50
2019-05-25T02:55:11.348Z,98.60
2019-05-25T02:57:39.055Z,98.50
2019-05-25T03:00:07.310Z,98.50
2019-05-25T03:02:35.038Z,98.60
2019-05-25T03:05:04.215Z,98.50
2019-05-25T03:07:32.503Z,98.50
2019-05-25T03:10:00.707Z,98.60
2019-05-25T03:12:28.961Z,98.50
2019-05-25T03:14:56.599Z,98.60
2019-05-25T03:17:24.289Z,98.80
2019-05-25T03:19:51.944Z,98.70
2019-05-25T03:22:19.627Z,98.50
2019-05-25T03:24:47.273Z,98.70
2019-05-25T03:27:14.947Z,98.90
2019-05-25T03:29:42.591Z,98.50
2019-05-25T03:32:10.340Z,98.70
2019-05-25T03:34:37.976Z,98.70
2019-05-25T03:37:05.653Z,98.60
2019-05-25T03:39:33.295Z,98.70
2019-05-25T03:42:00.978Z,98.60
2019-05-25T03:44:28.603Z,98.60
2019-05-25T03:46:56.343Z,98.80
2019-05-25T03:49:23.986Z,98.60
2019-05-25T03:51:51.905Z,98.90
2019-05-25T03:54:19.917Z,98.80
2019-05-25T03:56:47.588Z,98.80
2019-05-25T03:59:15.548Z,98.80
2019-05-25T04:01:43.183Z,98.70
2019-05-25T04:04:10.968Z,98.30
2019-05-25T04:06:38.618Z,99.00
2019-05-25T04:09:06.292Z,98.80
2019-05-25T04:11:34.163Z,99.10
2019-05-25T04:14:01.843Z,99.10
2019-05-25T04:16:29.799Z,99.30
2019-05-25T04:18:57.475Z,99.10
2019-05-25T04:21:25.116Z,99.50
2019-05-25T04:23:52.803Z,99.10
2019-05-25T04:26:22.787Z,99.30
2019-05-25T04:28:49.853Z,99.50
2019-05-25T04:31:17.502Z,99.50
2019-05-25T04:33:45.489Z,99.40
2019-05-25T04:36:13.143Z,99.80
2019-05-25T04:38:41.130Z,99.50
2019-05-25T04:41:09.087Z,99.40
2019-05-25T04:43:36.792Z,99.50
2019-05-25T04:46:04.435Z,99.40
2019-05-25T04:48:32.115Z,99.70
2019-05-25T04:50:59.759Z,99.50
2019-05-25T04:53:27.442Z,99.60
2019-05-25T04:55:55.080Z,99.80
2019-05-25T04:58:22.760Z,99.90
2019-05-25T05:00:50.405Z,99.90
2019-05-25T05:03:18.459Z,99.90
2019-05-25T05:05:46.117Z,99.90
2019-05-25T05:08:13.802Z,99.90
2019-05-25T05:10:42.022Z,99.90
2019-05-25T05:13:09.712Z,99.50
2019-05-25T05:15:37.343Z,99.20
2019-05-25T05:18:05.094Z,99.20
2019-05-25T05:20:32.732Z,99.90
2019-05-25T05:23:00.410Z,98.80
2019-05-25T05:25:28.055Z,98.70
2019-05-25T05:27:55.746Z,98.60
2019-05-25T05:30:32.973Z,98.50
2019-05-25T05:33:00.791Z,98.30
2019-05-25T05:35:28.999Z,98.60
2019-05-25T05:37:58.224Z,99.00
2019-05-25T05:40:25.868Z,98.40
2019-05-25T05:42:54.023Z,98.50
2019-05-25T05:45:21.654Z,98.30
2019-05-25T05:47:50.424Z,97.90
2019-05-25T05:50:18.135Z,97.10
2019-05-25T05:52:45.871Z,97.50
2019-05-25T05:55:17.233Z,97.80
2019-05-25T05:57:43.787Z,97.50
2019-05-25T06:00:11.635Z,97.30
2019-05-25T06:02:39.282Z,97.30
2019-05-25T06:05:07.035Z,97.30
2019-05-25T06:07:34.675Z,97.20
2019-05-25T06:10:02.633Z,97.60
2019-05-25T06:12:31.740Z,97.50
2019-05-25T06:14:59.572Z,97.70
2019-05-25T06:17:27.207Z,97.00
2019-05-25T06:19:54.891Z,97.60
2019-05-25T06:22:22.566Z,96.90
2019-05-25T06:24:50.571Z,96.80
2019-05-25T06:27:27.080Z,97.10
2019-05-25T06:29:47.627Z,96.00
2019-05-25T06:32:15.272Z,95.80
2019-05-25T06:34:43.263Z,94.60
2019-05-25T06:37:10.979Z,94.80
2019-05-25T06:39:38.674Z,95.20
2019-05-25T06:42:06.321Z,95.10
2019-05-25T06:44:34.024Z,95.40
2019-05-25T06:47:01.699Z,95.20
2019-05-25T06:49:29.387Z,95.30
2019-05-25T06:51:57.074Z,94.50
2019-05-25T06:54:25.008Z,94.40
2019-05-25T06:56:52.687Z,94.30
2019-05-25T06:59:20.330Z,93.70
2019-05-25T07:01:48.011Z,93.90
2019-05-25T07:04:15.659Z,92.70
2019-05-25T07:06:43.451Z,91.60
2019-05-25T07:09:11.122Z,91.80
2019-05-25T07:11:38.800Z,91.30
2019-05-25T07:14:06.448Z,92.30
2019-05-25T07:16:34.136Z,91.50
2019-05-25T07:19:01.783Z,91.90
2019-05-25T07:21:29.459Z,91.60
2019-05-25T07:23:57.101Z,90.30
2019-05-25T07:26:28.991Z,90.50
2019-05-25T07:28:56.627Z,91.20
2019-05-25T07:31:24.829Z,89.60
2019-05-25T07:33:52.472Z,88.80
2019-05-25T07:36:20.276Z,88.20
2019-05-25T07:38:47.915Z,89.80
2019-05-25T07:41:15.559Z,90.60
2019-05-25T07:43:43.239Z,89.70
2019-05-25T07:46:10.888Z,82.90
2019-05-25T07:48:38.559Z,87.00
2019-05-25T07:51:06.296Z,86.10
2019-05-25T07:53:34.024Z,86.80
2019-05-25T07:56:01.676Z,84.10
2019-05-25T07:58:29.647Z,86.90
2019-05-25T08:00:57.298Z,86.80
2019-05-25T08:03:24.980Z,83.90
2019-05-25T08:05:52.628Z,84.80
2019-05-25T08:08:20.321Z,85.60
2019-05-25T08:10:47.955Z,84.10
2019-05-25T08:13:15.639Z,83.00
2019-05-25T08:15:43.287Z,84.20
2019-05-25T08:18:10.972Z,82.40
2019-05-25T08:20:38.905Z,80.50
2019-05-25T08:23:06.581Z,82.30
2019-05-25T08:25:34.229Z,81.70
2019-05-25T08:28:01.921Z,83.10
2019-05-25T08:30:29.560Z,81.90
2019-05-25T08:32:57.243Z,81.00
2019-05-25T08:35:24.883Z,82.60
2019-05-25T08:37:52.572Z,79.10
2019-05-25T08:40:20.508Z,78.60
2019-05-25T08:42:48.476Z,79.90
2019-05-25T08:45:16.185Z,80.70
2019-05-25T08:47:43.870Z,77.70
2019-05-25T08:50:11.524Z,80.30
2019-05-25T08:52:58.670Z,82.00
2019-05-25T08:55:26.650Z,80.30
2019-05-25T08:57:54.435Z,81.40
2019-05-25T09:00:22.084Z,81.10
2019-05-25T09:02:49.767Z,80.00
2019-05-25T09:05:17.451Z,79.40
2019-05-25T09:07:45.167Z,79.80
2019-05-25T09:10:12.884Z,79.40
2019-05-25T09:12:40.587Z,79.90
2019-05-25T09:15:08.309Z,78.70
2019-05-25T09:17:35.988Z,77.60
2019-05-25T09:20:07.996Z,76.60
2019-05-25T09:22:35.679Z,77.20
2019-05-25T09:25:05.190Z,76.90
2019-05-25T09:27:32.964Z,75.60
2019-05-25T09:30:00.662Z,75.50
2019-05-25T09:32:28.347Z,77.60
2019-05-25T09:34:55.991Z,73.90
2019-05-25T09:37:23.636Z,73.80
2019-05-25T09:39:51.404Z,74.20
2019-05-25T09:42:19.227Z,74.70
2019-05-25T09:44:47.176Z,73.50
2019-05-25T09:47:14.822Z,72.00
2019-05-25T09:49:42.503Z,70.70
2019-05-25T09:52:10.454Z,74.00
2019-05-25T09:54:38.143Z,73.60
2019-05-25T09:57:05.786Z,67.60
2019-05-25T09:59:33.466Z,67.80
2019-05-25T10:02:01.183Z,70.80
2019-05-25T10:04:28.858Z,68.00
2019-05-25T10:06:56.501Z,66.40
2019-05-25T10:09:24.206Z,69.60
2019-05-25T10:11:51.852Z,68.60
2019-05-25T10:14:19.530Z,70.70
2019-05-25T10:16:47.175Z,66.60
2019-05-25T10:19:14.859Z,68.20
2019-05-25T10:21:42.635Z,67.00
2019-05-25T10:24:10.316Z,63.30
2019-05-25T10:26:38.259Z,63.90
2019-05-25T10:29:05.950Z,67.00
2019-05-25T10:31:33.615Z,65.70
2019-05-25T10:34:01.649Z,64.10
2019-05-25T10:36:29.300Z,61.40
2019-05-25T10:38:57.285Z,62.00
2019-05-25T10:41:24.967Z,60.70
2019-05-25T10:43:52.611Z,60.70
2019-05-25T10:46:20.295Z,62.30
2019-05-25T10:48:47.951Z,59.70
2019-05-25T10:51:15.640Z,61.10
2019-05-25T10:53:43.284Z,61.90
2019-05-25T10:56:10.954Z,62.20
2019-05-25T10:58:39.366Z,61.10
2019-05-25T11:03:41.156Z,59.80
2019-05-25T11:06:08.963Z,59.10
2019-05-25T11:08:36.605Z,54.90
2019-05-25T11:11:04.284Z,56.50
2019-05-25T11:13:32.090Z,56.10
2019-05-25T11:15:59.770Z,58.50
2019-05-25T11:18:27.419Z,57.40
2019-05-25T11:20:55.091Z,58.50
2019-05-25T11:23:22.742Z,58.80
2019-05-25T11:25:50.775Z,59.50
2019-05-25T11:28:18.423Z,58.70
2019-05-25T11:30:46.675Z,60.50
2019-05-25T11:33:14.379Z,59.10
2019-05-25T11:35:43.735Z,58.40
2019-05-25T11:38:11.408Z,59.60
2019-05-25T11:40:39.106Z,56.20
2019-05-25T11:43:06.747Z,56.20
2019-05-25T11:45:34.428Z,59.00
2019-05-25T11:48:02.063Z,56.70
2019-05-25T11:50:29.715Z,55.10
2019-05-25T11:52:57.395Z,56.60
2019-05-25T11:55:25.035Z,56.60
2019-05-25T11:57:54.154Z,55.00
2019-05-25T12:00:25.443Z,57.40
2019-05-25T12:02:51.567Z,57.50
2019-05-25T12:05:19.286Z,57.70
2019-05-25T12:07:46.964Z,57.40
2019-05-25T12:10:16.388Z,58.30
2019-05-25T12:12:44.073Z,56.70
2019-05-25T12:15:12.093Z,57.60
2019-05-25T12:17:39.790Z,58.50
2019-05-25T12:20:07.726Z,55.20
2019-05-25T12:22:35.447Z,55.30
2019-05-25T12:25:04.494Z,57.40
2019-05-25T12:27:32.175Z,54.50
2019-05-25T12:29:59.821Z,55.20
2019-05-25T12:32:27.808Z,55.40
2019-05-25T12:34:55.819Z,56.70
2019-05-25T12:37:23.511Z,50.80
2019-05-25T12:39:51.172Z,54.50
2019-05-25T12:42:19.167Z,54.60
2019-05-25T12:44:47.143Z,55.10
2019-05-25T12:47:14.826Z,52.20
2019-05-25T12:49:50.807Z,54.10
2019-05-25T12:52:20.297Z,57.00
2019-05-25T12:54:48.235Z,56.90
2019-05-25T12:57:15.914Z,53.60
2019-05-25T12:59:43.882Z,52.30
2019-05-25T13:02:11.555Z,50.40
2019-05-25T13:04:39.480Z,52.80
2019-05-25T13:07:07.231Z,51.60
2019-05-25T13:09:34.862Z,53.80
2019-05-25T13:12:02.858Z,52.00
2019-05-25T13:14:30.495Z,51.00
2019-05-25T13:16:58.176Z,54.40
2019-05-25T13:19:35.467Z,54.30
2019-05-25T13:22:03.229Z,51.80
2019-05-25T13:24:30.926Z,52.60
2019-05-25T13:26:58.932Z,52.70
2019-05-25T13:29:26.728Z,51.90
2019-05-25T13:31:54.578Z,53.30
2019-05-25T13:34:22.251Z,53.80
2019-05-25T13:36:49.939Z,53.40
2019-05-25T13:39:17.615Z,53.30
2019-05-25T13:41:45.263Z,54.90
2019-05-25T13:44:13.275Z,54.80
2019-05-25T13:46:40.916Z,55.00
2019-05-25T13:49:08.662Z,52.70
2019-05-25T13:51:36.599Z,51.40
2019-05-25T13:54:04.589Z,51.30
2019-05-25T13:56:32.232Z,51.80
2019-05-25T13:59:00.802Z,51.70
2019-05-25T14:01:29.008Z,47.40
2019-05-25T14:03:57.136Z,52.40
2019-05-25T14:06:25.107Z,53.10
2019-05-25T14:12:02.928Z,52.20
2019-05-25T14:14:30.608Z,53.40
2019-05-25T14:16:58.268Z,51.30
2019-05-25T14:19:25.969Z,54.20
2019-05-25T14:21:53.685Z,51.80
2019-05-25T14:24:21.369Z,50.00
2019-05-25T14:26:49.017Z,51.60
2019-05-25T14:29:16.722Z,49.10
2019-05-25T14:31:46.205Z,51.60
2019-05-25T14:34:13.840Z,51.70
2019-05-25T14:36:41.487Z,53.70
2019-05-25T14:39:09.240Z,54.70
2019-05-25T14:41:36.891Z,50.40
2019-05-25T14:44:04.639Z,46.40
2019-05-25T14:46:32.296Z,51.00
2019-05-25T14:49:00.025Z,51.80
2019-05-25T14:51:27.705Z,55.00
2019-05-25T14:53:55.348Z,54.70
2019-05-25T14:56:23.036Z,51.30
2019-05-25T14:58:50.894Z,54.60
2019-05-25T15:01:18.640Z,55.50
2019-05-25T15:03:46.338Z,58.90
2019-05-25T15:06:14.058Z,53.30
2019-05-25T15:08:41.798Z,53.20
2019-05-25T15:11:09.479Z,51.40
2019-05-25T15:13:37.212Z,51.40
2019-05-25T15:16:04.917Z,52.00
2019-05-25T15:18:33.592Z,54.60
2019-05-25T15:21:01.347Z,60.00
2019-05-25T15:23:29.064Z,61.30
2019-05-25T15:25:56.747Z,60.00
2019-05-25T15:28:24.391Z,60.30
2019-05-25T15:30:52.071Z,63.80
2019-05-25T15:33:19.763Z,66.90
2019-05-25T15:35:47.744Z,67.70
2019-05-25T15:38:15.406Z,67.60
2019-05-25T15:40:43.147Z,62.90
2019-05-25T15:43:10.788Z,67.60
2019-05-25T15:45:38.473Z,67.70
2019-05-25T15:48:06.120Z,68.80
2019-05-25T15:50:33.867Z,66.60
2019-05-25T15:53:01.516Z,61.20
2019-05-25T15:55:29.204Z,64.50
2019-05-25T15:57:56.852Z,63.60
2019-05-25T16:00:26.434Z,64.30
2019-05-25T16:02:57.144Z,66.90
2019-05-25T16:05:24.827Z,65.90
2019-05-25T16:07:53.349Z,65.10
2019-05-25T16:10:20.989Z,67.00
2019-05-25T16:12:48.923Z,69.40
2019-05-25T16:15:18.104Z,73.30
2019-05-25T16:17:45.788Z,77.10
2019-05-25T16:20:15.231Z,81.20
2019-05-25T16:22:42.924Z,84.00
2019-05-25T16:25:10.763Z,87.10
2019-05-25T16:27:38.465Z,86.80
2019-05-25T16:30:08.888Z,90.10
2019-05-25T16:33:07.036Z,90.40
2019-05-25T16:35:06.219Z,91.10
2019-05-25T16:37:34.084Z,92.40
2019-05-25T16:40:02.019Z,92.20
2019-05-25T16:42:29.725Z,93.80
2019-05-25T16:44:57.363Z,94.20
2019-05-25T16:47:25.084Z,94.60
2019-05-25T16:49:52.744Z,94.20
2019-05-25T16:52:20.496Z,94.40
2019-05-25T16:54:48.169Z,95.20
2019-05-25T16:57:15.911Z,95.10
2019-05-25T16:59:43.547Z,95.40
2019-05-25T17:02:11.231Z,95.30
2019-05-25T17:04:38.875Z,95.50
2019-05-25T17:07:06.550Z,95.50
2019-05-25T17:09:34.253Z,95.70
2019-05-25T17:12:01.965Z,95.60
2019-05-25T17:14:29.603Z,96.50
2019-05-25T17:16:57.373Z,96.50
2019-05-25T17:19:25.017Z,96.40
2019-05-25T17:21:53.000Z,96.30
2019-05-25T17:24:20.975Z,96.30
2019-05-25T17:26:48.654Z,96.50
2019-05-25T17:29:16.299Z,96.40
2019-05-25T17:31:44.115Z,96.60
2019-05-25T17:34:11.759Z,96.80
2019-05-25T17:36:39.411Z,96.90
2019-05-25T17:39:08.067Z,97.20
2019-05-25T17:41:35.708Z,97.10
2019-05-25T17:44:03.708Z,97.50
2019-05-25T17:46:31.431Z,97.90
2019-05-25T17:48:59.413Z,97.70
2019-05-25T17:51:27.060Z,97.80
2019-05-25T17:53:54.743Z,97.70
2019-05-25T17:56:22.460Z,97.80
2019-05-25T17:58:50.139Z,97.40
2019-05-25T18:01:19.922Z,97.90
2019-05-25T18:04:04.926Z,98.10
2019-05-25T18:06:16.984Z,98.00
2019-05-25T18:08:44.659Z,98.20
2019-05-25T18:11:12.311Z,98.10
2019-05-25T18:13:39.991Z,98.00
2019-05-25T18:16:07.648Z,98.50
2019-05-25T18:18:35.585Z,98.40
2019-05-25T18:21:03.238Z,98.10
2019-05-25T18:23:30.975Z,98.10
2019-05-25T18:25:58.624Z,98.00
2019-05-25T18:28:26.304Z,98.00
2019-05-25T18:30:53.948Z,98.20
2019-05-25T18:33:21.689Z,98.40
2019-05-25T18:35:49.374Z,98.50
2019-05-25T18:38:17.051Z,98.70
2019-05-25T18:40:44.699Z,98.90
2019-05-25T18:43:12.407Z,98.80
2019-05-25T18:45:40.102Z,98.70
2019-05-25T18:48:07.783Z,98.60
2019-05-25T18:50:35.429Z,98.90
2019-05-25T18:53:03.122Z,99.00
2019-05-25T18:55:30.767Z,99.10
2019-05-25T18:57:58.456Z,99.10
2019-05-25T19:00:26.268Z,99.30
2019-05-25T19:02:54.246Z,99.30
2019-05-25T19:05:22.084Z,99.50
2019-05-25T19:07:49.733Z,99.60
2019-05-25T19:10:17.476Z,99.30
2019-05-25T19:12:45.119Z,99.50
2019-05-25T19:15:13.275Z,99.40
2019-05-25T19:17:40.919Z,99.50
2019-05-25T19:20:09.013Z,99.40
2019-05-25T19:22:36.904Z,98.90
2019-05-25T19:25:06.261Z,99.50
2019-05-25T19:27:33.906Z,99.60
2019-05-25T19:30:01.593Z,99.70
2019-05-25T19:32:29.307Z,99.70
2019-05-25T19:35:00.090Z,99.70
2019-05-25T19:37:26.356Z,99.70
2019-05-25T19:39:54.042Z,99.90
2019-05-25T19:42:21.992Z,99.90
2019-05-25T19:44:50.118Z,99.90
2019-05-25T19:47:18.091Z,99.90
2019-05-25T19:49:45.770Z,99.90
2019-05-25T19:52:13.420Z,99.90
2019-05-25T19:54:41.104Z,99.90
2019-05-25T19:57:08.752Z,99.90
2019-05-25T19:59:36.816Z,99.90
2019-05-25T20:02:04.787Z,99.80
2019-05-25T20:04:32.469Z,99.90
2019-05-25T20:07:00.116Z,99.90
2019-05-25T20:09:27.798Z,99.90
2019-05-25T20:11:55.440Z,99.90
2019-05-25T20:14:23.121Z,99.90
2019-05-25T20:16:50.772Z,99.90
2019-05-25T20:19:18.414Z,99.90
2019-05-25T20:21:46.097Z,99.90
2019-05-25T20:24:13.737Z,99.90
2019-05-25T20:26:41.720Z,99.90
2019-05-25T20:29:09.363Z,99.90
2019-05-25T20:31:37.045Z,99.90
2019-05-25T20:34:04.760Z,99.80
2019-05-25T20:36:32.435Z,99.90
2019-05-25T20:39:00.078Z,99.90
2019-05-25T20:41:27.772Z,99.90
2019-05-25T20:43:55.415Z,99.90
2019-05-25T20:46:23.102Z,99.90
2019-05-25T20:48:50.758Z,99.90
2019-05-25T20:51:18.491Z,99.90
2019-05-25T20:53:46.132Z,99.90
2019-05-25T20:56:13.816Z,99.90
2019-05-25T20:58:41.459Z,99.90
2019-05-25T21:01:09.425Z,99.90
2019-05-25T21:03:37.071Z,99.90
2019-05-25T21:06:04.746Z,99.90
2019-05-25T21:08:32.390Z,99.90
2019-05-25T21:11:00.071Z,99.90
2019-05-25T21:13:27.962Z,99.90
2019-05-25T21:15:55.639Z,99.90
2019-05-25T21:18:23.295Z,99.90
2019-05-25T21:20:50.968Z,99.40
2019-05-25T21:23:18.610Z,99.90
2019-05-25T21:25:46.288Z,99.90
2019-05-25T21:28:13.935Z,99.90
2019-05-25T21:30:41.628Z,99.90
2019-05-25T21:33:09.522Z,99.90
2019-05-25T21:35:37.193Z,99.90
2019-05-25T21:38:04.841Z,99.90
2019-05-25T21:40:32.489Z,99.90
2019-05-25T21:43:00.220Z,99.90
2019-05-25T21:45:28.251Z,99.90
2019-05-25T21:47:56.582Z,99.90
2019-05-25T21:50:24.431Z,99.90
2019-05-25T21:52:52.111Z,99.90
2019-05-25T21:55:19.765Z,99.90
2019-05-25T21:57:47.443Z,99.90
2019-05-25T22:00:17.541Z,99.90
2019-05-25T22:02:45.233Z,99.90
2019-05-25T22:05:13.035Z,99.90
2019-05-25T22:07:40.722Z,99.90
2019-05-25T22:10:08.631Z,99.90
2019-05-25T22:12:36.315Z,99.90
2019-05-25T22:15:05.729Z,99.90
2019-05-25T22:17:33.484Z,99.90
2019-05-25T22:20:01.208Z,99.90
2019-05-25T22:22:28.883Z,99.90
2019-05-25T22:24:56.523Z,99.90
2019-05-25T22:27:24.209Z,99.90
2019-05-25T22:29:51.855Z,99.90
2019-05-25T22:32:19.540Z,99.90
2019-05-25T22:34:47.184Z,99.90
2019-05-25T22:37:14.870Z,99.90
2019-05-25T22:39:42.898Z,99.90
2019-05-25T22:42:10.664Z,99.90
2019-05-25T22:44:38.379Z,99.90
2019-05-25T22:47:06.069Z,99.90
2019-05-25T22:49:33.712Z,99.90
2019-05-25T22:52:01.696Z,99.90
2019-05-25T22:54:29.331Z,99.90
2019-05-25T22:56:57.016Z,99.90
2019-05-25T22:59:24.983Z,99.90
2019-05-25T23:01:52.632Z,99.90
2019-05-25T23:04:20.405Z,99.90
2019-05-25T23:06:57.142Z,99.90
2019-05-25T23:09:17.585Z,99.90
2019-05-25T23:11:45.285Z,99.90
2019-05-25T23:14:13.027Z,99.90
2019-05-25T23:16:40.985Z,99.90
2019-05-25T23:19:08.663Z,99.90
2019-05-25T23:21:36.308Z,99.90
2019-05-25T23:24:04.051Z,99.90
2019-05-25T23:26:31.704Z,99.90
2019-05-25T23:28:59.398Z,99.90
2019-05-25T23:31:27.368Z,99.90
2019-05-25T23:33:55.047Z,99.90
2019-05-25T23:36:22.695Z,99.90
2019-05-25T23:38:50.380Z,99.90
2019-05-25T23:41:18.023Z,99.90
2019-05-25T23:43:45.984Z,99.90
2019-05-25T23:46:13.628Z,99.90
2019-05-25T23:48:41.308Z,99.90
2019-05-25T23:51:08.949Z,99.90
2019-05-25T23:53:36.635Z,99.90
2019-05-25T23:56:04.283Z,99.90
2019-05-25T23:58:31.960Z,99.90
